createdAt,value
2022-08-02T00:00:26.067Z,4.12
2022-08-02T00:02:27.743Z,4.12
2022-08-02T00:04:28.894Z,4.12
2022-08-02T00:08:31.793Z,4.12
2022-08-02T00:10:33.095Z,4.12
2022-08-02T00:12:34.606Z,4.12
2022-08-02T00:14:35.944Z,4.12
2022-08-02T00:18:38.876Z,4.12
2022-08-02T00:20:40.244Z,4.12
2022-08-02T00:22:41.898Z,4.12
2022-08-02T00:24:43.070Z,4.12
2022-08-02T00:26:44.043Z,4.12
2022-08-02T00:28:45.280Z,4.12
2022-08-02T00:30:46.305Z,4.12
2022-08-02T00:34:48.930Z,4.12
2022-08-02T00:36:50.693Z,4.12
2022-08-02T00:38:51.734Z,4.11
2022-08-02T00:40:56.518Z,4.12
2022-08-02T00:42:54.153Z,4.11
2022-08-02T00:44:55.885Z,4.12
2022-08-02T00:46:57.748Z,4.11
2022-08-02T00:51:00.366Z,4.11
2022-08-02T00:53:02.279Z,4.12
2022-08-02T00:55:03.207Z,4.11
2022-08-02T00:57:04.093Z,4.11
2022-08-02T01:01:06.359Z,4.11
2022-08-02T01:03:07.350Z,4.11
2022-08-02T01:05:08.627Z,4.11
2022-08-02T01:07:12.403Z,4.11
2022-08-02T01:09:11.398Z,4.11
2022-08-02T01:11:12.855Z,4.11
2022-08-02T01:13:14.352Z,4.11
2022-08-02T01:17:16.609Z,4.11
2022-08-02T01:19:18.077Z,4.11
2022-08-02T01:23:21.257Z,4.11
2022-08-02T01:25:22.575Z,4.11
2022-08-02T01:27:23.581Z,4.11
2022-08-02T01:29:25.435Z,4.11
2022-08-02T01:33:28.763Z,4.11
2022-08-02T01:35:30.514Z,4.1
2022-08-02T01:37:31.551Z,4.1
2022-08-02T01:39:32.939Z,4.1
2022-08-02T01:43:35.443Z,4.1
2022-08-02T01:45:36.406Z,4.11
2022-08-02T01:49:39.518Z,4.1
2022-08-02T01:51:41.016Z,4.1
2022-08-02T01:55:57.221Z,4.1
2022-08-02T01:57:46.119Z,4.1
2022-08-02T01:59:47.622Z,4.1
2022-08-02T02:01:49.445Z,4.1
2022-08-02T02:05:52.443Z,4.1
2022-08-02T02:07:53.703Z,4.1
2022-08-02T02:09:55.280Z,4.1
2022-08-02T02:12:03.583Z,4.1
2022-08-02T02:15:59.696Z,4.1
2022-08-02T02:18:12.120Z,4.1
2022-08-02T02:20:03.311Z,4.1
2022-08-02T02:22:04.593Z,4.1
2022-08-02T02:24:09.143Z,4.1
2022-08-02T02:26:07.005Z,4.1
2022-08-02T02:28:08.498Z,4.1
2022-08-02T02:32:12.317Z,4.1
2022-08-02T02:34:13.415Z,4.1
2022-08-02T02:38:16.460Z,4.1
2022-08-02T02:40:17.624Z,4.1
2022-08-02T02:42:19.302Z,4.1
2022-08-02T02:44:21.040Z,4.1
2022-08-02T02:48:23.034Z,4.1
2022-08-02T02:50:24.038Z,4.1
2022-08-02T02:52:25.312Z,4.1
2022-08-02T02:54:31.243Z,4.09
2022-08-02T02:56:28.041Z,4.09
2022-08-02T02:58:29.594Z,4.1
2022-08-02T03:00:31.158Z,4.09
2022-08-02T03:02:32.963Z,4.1
2022-08-02T03:04:36.200Z,4.1
2022-08-02T03:06:35.737Z,4.1
2022-08-02T03:08:37.031Z,4.09
2022-08-02T03:10:38.161Z,4.09
2022-08-02T03:14:41.146Z,4.09
2022-08-02T03:16:42.581Z,4.09
2022-08-02T03:18:43.974Z,4.09
2022-08-02T03:20:45.363Z,4.09
2022-08-02T03:22:46.662Z,4.09
2022-08-02T03:24:48.066Z,4.09
2022-08-02T03:26:49.665Z,4.09
2022-08-02T03:30:52.445Z,4.09
2022-08-02T03:32:53.579Z,4.09
2022-08-02T03:34:54.721Z,4.09
2022-08-02T03:36:55.813Z,4.09
2022-08-02T03:38:57.165Z,4.09
2022-08-02T03:40:58.269Z,4.09
2022-08-02T03:43:00.010Z,4.09
2022-08-02T03:47:02.777Z,4.09
2022-08-02T03:47:58.713Z,4.08
2022-08-02T03:49:56.873Z,4.09
2022-08-02T03:51:57.805Z,4.08
2022-08-02T03:53:59.536Z,4.09
2022-08-02T03:56:01.070Z,4.08
2022-08-02T03:58:02.746Z,4.08
2022-08-02T04:00:04.291Z,4.08
2022-08-02T04:02:05.900Z,4.09
2022-08-02T04:04:07.391Z,4.08
2022-08-02T04:06:08.751Z,4.08
2022-08-02T04:08:34.622Z,4.08
2022-08-02T04:10:11.674Z,4.08
2022-08-02T04:12:13.518Z,4.08
2022-08-02T04:16:15.853Z,4.08
2022-08-02T04:18:17.349Z,4.08
2022-08-02T04:20:18.294Z,4.08
2022-08-02T04:24:22.979Z,4.08
2022-08-02T04:26:26.806Z,4.08
2022-08-02T04:28:27.787Z,4.08
2022-08-02T04:30:26.500Z,4.08
2022-08-02T04:34:29.054Z,4.08
2022-08-02T04:36:30.732Z,4.08
2022-08-02T04:38:31.254Z,4.08
2022-08-02T04:40:32.760Z,4.08
2022-08-02T04:42:33.770Z,4.08
2022-08-02T04:44:34.932Z,4.08
2022-08-02T04:46:35.997Z,4.08
2022-08-02T04:50:38.637Z,4.08
2022-08-02T04:52:42.823Z,4.08
2022-08-02T04:54:40.624Z,4.08
2022-08-02T04:56:41.722Z,4.08
2022-08-02T04:58:42.948Z,4.08
2022-08-02T05:00:43.925Z,4.08
2022-08-02T05:02:45.690Z,4.08
2022-08-02T05:06:49.365Z,4.08
2022-08-02T05:08:52.557Z,4.08
2022-08-02T05:10:52.416Z,4.08
2022-08-02T05:12:53.788Z,4.08
2022-08-02T05:14:55.348Z,4.08
2022-08-02T05:16:56.673Z,4.08
2022-08-02T05:18:58.329Z,4.08
2022-08-02T05:20:59.842Z,4.09
2022-08-02T05:23:01.259Z,4.09
2022-08-02T05:25:02.759Z,4.09
2022-08-02T05:27:16.400Z,4.09
2022-08-02T05:29:05.731Z,4.09
2022-08-02T05:33:08.533Z,4.1
2022-08-02T05:35:09.882Z,4.1
2022-08-02T05:37:10.721Z,4.1
2022-08-02T05:39:12.450Z,4.1
2022-08-02T05:41:12.985Z,4.1
2022-08-02T05:43:14.304Z,4.1
2022-08-02T05:45:15.920Z,4.12
2022-08-02T05:49:18.624Z,4.11
2022-08-02T05:51:19.797Z,4.11
2022-08-02T05:53:20.757Z,4.12
2022-08-02T05:55:22.043Z,4.13
2022-08-02T05:59:24.356Z,4.12
2022-08-02T06:01:25.227Z,4.14
2022-08-02T06:03:26.310Z,4.14
2022-08-02T06:05:27.749Z,4.12
2022-08-02T06:07:28.826Z,4.14
2022-08-02T06:09:30.160Z,4.14
2022-08-02T06:11:31.244Z,4.13
2022-08-02T06:15:33.834Z,4.15
2022-08-02T06:17:34.849Z,4.15
2022-08-02T06:19:51.303Z,4.16
2022-08-02T06:22:30.029Z,4.16
2022-08-02T06:23:39.551Z,4.16
2022-08-02T06:25:48.644Z,4.16
2022-08-02T06:27:41.819Z,4.17
2022-08-02T06:31:45.186Z,4.17
2022-08-02T06:33:46.086Z,4.17
2022-08-02T06:35:47.727Z,4.17
2022-08-02T06:39:50.014Z,4.17
2022-08-02T06:41:50.834Z,4.18
2022-08-02T06:43:52.328Z,4.18
2022-08-02T06:47:56.021Z,4.18
2022-08-02T06:49:57.155Z,4.18
2022-08-02T06:51:58.265Z,4.19
2022-08-02T06:53:59.230Z,4.19
2022-08-02T06:58:01.545Z,4.19
2022-08-02T07:00:03.163Z,4.19
2022-08-02T07:04:05.162Z,4.19
2022-08-02T07:06:06.248Z,4.19
2022-08-02T07:08:07.871Z,4.19
2022-08-02T07:10:08.826Z,4.19
2022-08-02T07:14:10.587Z,4.19
2022-08-02T07:16:12.159Z,4.2
2022-08-02T07:18:13.028Z,4.2
2022-08-02T07:20:13.859Z,4.2
2022-08-02T07:22:15.041Z,4.2
2022-08-02T07:24:16.338Z,4.19
2022-08-02T07:26:18.012Z,4.19
2022-08-02T07:30:20.935Z,4.2
2022-08-02T07:32:22.475Z,4.2
2022-08-02T07:34:24.241Z,4.2
2022-08-02T07:36:25.137Z,4.2
2022-08-02T07:38:26.212Z,4.2
2022-08-02T07:40:27.084Z,4.19
2022-08-02T07:42:28.383Z,4.19
2022-08-02T07:46:31.640Z,4.19
2022-08-02T07:48:33.005Z,4.19
2022-08-02T07:50:34.525Z,4.19
2022-08-02T07:52:36.087Z,4.19
2022-08-02T07:56:38.668Z,4.19
2022-08-02T07:58:39.775Z,4.19
2022-08-02T08:00:41.313Z,4.18
2022-08-02T08:02:42.770Z,4.18
2022-08-02T08:04:44.038Z,4.18
2022-08-02T08:06:45.297Z,4.18
2022-08-02T08:08:46.995Z,4.18
2022-08-02T08:12:49.179Z,4.18
2022-08-02T08:14:50.692Z,4.18
2022-08-02T08:16:51.920Z,4.18
2022-08-02T08:18:53.190Z,4.18
2022-08-02T08:20:54.914Z,4.18
2022-08-02T08:22:56.057Z,4.18
2022-08-02T08:24:57.168Z,4.18
2022-08-02T08:28:59.999Z,4.18
2022-08-02T08:31:00.879Z,4.18
2022-08-02T08:33:02.435Z,4.18
2022-08-02T08:35:03.758Z,4.18
2022-08-02T08:39:05.568Z,4.17
2022-08-02T08:41:08.334Z,4.18
2022-08-02T08:45:09.792Z,4.17
2022-08-02T08:47:11.302Z,4.17
2022-08-02T08:49:12.629Z,4.17
2022-08-02T08:51:13.484Z,4.17
2022-08-02T08:55:15.631Z,4.17
2022-08-02T08:57:16.916Z,4.17
2022-08-02T08:59:17.924Z,4.17
2022-08-02T09:01:19.128Z,4.17
2022-08-02T09:03:20.317Z,4.17
2022-08-02T09:05:21.101Z,4.17
2022-08-02T09:09:23.741Z,4.17
2022-08-02T09:13:30.983Z,4.17
2022-08-02T09:17:28.171Z,4.17
2022-08-02T09:19:28.937Z,4.17
2022-08-02T09:21:30.348Z,4.17
2022-08-02T09:23:31.768Z,4.17
2022-08-02T09:25:33.100Z,4.17
2022-08-02T09:27:34.468Z,4.17
2022-08-02T09:29:38.243Z,4.17
2022-08-02T09:31:36.460Z,4.17
2022-08-02T09:33:38.215Z,4.17
2022-08-02T09:36:05.582Z,4.17
2022-08-02T09:37:42.040Z,4.17
2022-08-02T09:43:52.106Z,4.17
2022-08-02T09:45:46.147Z,4.17
2022-08-02T09:47:47.592Z,4.17
2022-08-02T09:49:52.462Z,4.16
2022-08-02T09:51:49.746Z,4.17
2022-08-02T09:53:53.296Z,4.17
2022-08-02T09:57:53.426Z,4.16
2022-08-02T09:59:54.741Z,4.16
2022-08-02T10:01:59.219Z,4.16
2022-08-02T10:03:57.180Z,4.17
2022-08-02T10:06:02.500Z,4.17
2022-08-02T10:09:59.854Z,4.16
2022-08-02T10:12:01.620Z,4.17
2022-08-02T10:14:03.112Z,4.16
2022-08-02T10:16:04.067Z,4.16
2022-08-02T10:20:06.523Z,4.16
2022-08-02T10:22:07.432Z,4.16
2022-08-02T10:24:08.586Z,4.16
2022-08-02T10:26:10.183Z,4.16
2022-08-02T10:28:15.101Z,4.16
2022-08-02T10:30:12.806Z,4.16
2022-08-02T10:32:57.957Z,4.16
2022-08-02T10:35:02.642Z,4.16
2022-08-02T10:39:01.817Z,4.16
2022-08-02T10:43:03.706Z,4.16
2022-08-02T10:47:06.105Z,4.16
2022-08-02T10:49:24.234Z,4.16
2022-08-02T10:51:08.737Z,4.16
2022-08-02T10:53:10.016Z,4.16
2022-08-02T10:55:10.857Z,4.16
2022-08-02T10:57:15.078Z,4.16
2022-08-02T10:59:13.917Z,4.16
2022-08-02T11:01:15.384Z,4.16
2022-08-02T11:03:16.399Z,4.16
2022-08-02T11:05:17.187Z,4.16
2022-08-02T11:07:18.508Z,4.16
2022-08-02T11:09:19.485Z,4.16
2022-08-02T11:13:21.876Z,4.16
2022-08-02T11:15:22.892Z,4.16
2022-08-02T11:19:24.872Z,4.16
2022-08-02T11:21:26.050Z,4.16
2022-08-02T11:23:43.861Z,4.16
2022-08-02T11:25:38.519Z,4.16
2022-08-02T11:29:30.384Z,4.15
2022-08-02T11:31:31.721Z,4.15
2022-08-02T11:35:34.823Z,4.15
2022-08-02T11:37:35.731Z,4.15
2022-08-02T11:39:37.183Z,4.15
2022-08-02T11:41:39.488Z,4.15
2022-08-02T11:45:40.770Z,4.15
2022-08-02T11:47:41.645Z,4.15
2022-08-02T11:49:42.688Z,4.15
2022-08-02T11:51:43.896Z,4.15
2022-08-02T11:55:46.781Z,4.15
2022-08-02T11:57:59.543Z,4.14
2022-08-02T11:59:49.369Z,4.15
2022-08-02T12:01:50.226Z,4.15
2022-08-02T12:03:51.012Z,4.14
2022-08-02T12:06:04.178Z,4.15
2022-08-02T12:07:53.648Z,4.15
2022-08-02T12:11:56.263Z,4.15
2022-08-02T12:13:57.520Z,4.15
2022-08-02T12:15:58.880Z,4.15
2022-08-02T12:18:00.209Z,4.14
2022-08-02T12:20:01.287Z,4.14
2022-08-02T12:22:02.382Z,4.15
2022-08-02T12:24:04.011Z,4.15
2022-08-02T12:26:05.008Z,4.14
2022-08-02T12:28:06.095Z,4.14
2022-08-02T12:32:08.260Z,4.14
2022-08-02T12:34:09.542Z,4.14
2022-08-02T12:36:11.080Z,4.14
2022-08-02T12:38:12.434Z,4.14
2022-08-02T12:40:13.280Z,4.14
2022-08-02T12:44:15.951Z,4.14
2022-08-02T12:46:17.302Z,4.14
2022-08-02T12:48:18.708Z,4.14
2022-08-02T12:50:20.191Z,4.14
2022-08-02T12:54:27.458Z,4.14
2022-08-02T12:56:24.039Z,4.14
2022-08-02T12:58:25.039Z,4.16
2022-08-02T13:00:25.852Z,4.17
2022-08-02T13:02:26.921Z,4.17
2022-08-02T13:04:27.974Z,4.17
2022-08-02T13:06:41.418Z,4.17
2022-08-02T13:10:32.505Z,4.17
2022-08-02T13:12:33.544Z,4.18
2022-08-02T13:14:38.328Z,4.18
2022-08-02T13:16:35.641Z,4.19
2022-08-02T13:18:37.031Z,4.18
2022-08-02T13:20:41.474Z,4.19
2022-08-02T13:22:39.251Z,4.19
2022-08-02T13:24:55.471Z,4.19
2022-08-02T13:26:41.892Z,4.19
2022-08-02T13:28:43.563Z,4.19
2022-08-02T13:30:44.637Z,4.19
2022-08-02T13:32:46.377Z,4.19
2022-08-02T13:36:48.129Z,4.19
2022-08-02T13:38:49.337Z,4.19
2022-08-02T13:42:51.596Z,4.19
2022-08-02T13:44:53.334Z,4.19
2022-08-02T13:46:54.588Z,4.19
2022-08-02T13:48:55.482Z,4.19
2022-08-02T13:52:57.893Z,4.2
2022-08-02T13:54:59.410Z,4.2
2022-08-02T13:57:00.755Z,4.2
2022-08-02T13:59:01.609Z,4.19
2022-08-02T14:03:05.181Z,4.2
2022-08-02T14:05:06.679Z,4.2
2022-08-02T14:09:09.092Z,4.2
2022-08-02T14:11:10.590Z,4.2
2022-08-02T14:13:11.663Z,4.2
2022-08-02T14:15:12.537Z,4.19
2022-08-02T14:17:13.850Z,4.19
2022-08-02T14:19:16.929Z,4.19
2022-08-02T14:21:17.254Z,4.19
2022-08-02T14:23:18.790Z,4.19
2022-08-02T14:25:19.850Z,4.19
2022-08-02T14:27:20.592Z,4.19
2022-08-02T14:29:21.852Z,4.19
2022-08-02T14:31:23.460Z,4.19
2022-08-02T14:33:24.541Z,4.19
2022-08-02T14:35:26.152Z,4.19
2022-08-02T14:37:27.804Z,4.19
2022-08-02T14:39:42.685Z,4.19
2022-08-02T14:41:30.954Z,4.19
2022-08-02T14:43:32.518Z,4.18
2022-08-02T14:45:36.934Z,4.19
2022-08-02T14:47:34.810Z,4.18
2022-08-02T14:49:39.541Z,4.19
2022-08-02T14:51:36.995Z,4.18
2022-08-02T14:53:49.300Z,4.19
2022-08-02T14:55:40.080Z,4.18
2022-08-02T14:57:41.706Z,4.18
2022-08-02T14:59:42.920Z,4.18
2022-08-02T15:01:44.526Z,4.18
2022-08-02T15:03:45.209Z,4.18
2022-08-02T15:07:49.611Z,4.18
2022-08-02T15:09:48.984Z,4.18
2022-08-02T15:11:50.195Z,4.18
2022-08-02T15:13:51.588Z,4.18
2022-08-02T15:17:53.603Z,4.18
2022-08-02T15:19:57.181Z,4.18
2022-08-02T15:21:57.001Z,4.18
2022-08-02T15:23:57.713Z,4.18
2022-08-02T15:25:58.507Z,4.18
2022-08-02T15:27:59.499Z,4.18
2022-08-02T15:30:01.175Z,4.18
2022-08-02T15:34:04.696Z,4.17
2022-08-02T15:36:06.119Z,4.18
2022-08-02T15:38:07.377Z,4.18
2022-08-02T15:40:08.434Z,4.17
2022-08-02T15:42:10.195Z,4.17
2022-08-02T15:44:10.896Z,4.17
2022-08-02T15:46:11.805Z,4.17
2022-08-02T15:50:15.126Z,4.17
2022-08-02T15:52:16.569Z,4.17
2022-08-02T15:54:17.133Z,4.17
2022-08-02T15:56:21.869Z,4.17
2022-08-02T15:58:22.401Z,4.17
2022-08-02T16:00:20.569Z,4.17
2022-08-02T16:02:21.964Z,4.17
2022-08-02T16:04:23.209Z,4.17
2022-08-02T16:06:25.159Z,4.17
2022-08-02T16:08:25.415Z,4.17
2022-08-02T16:10:26.272Z,4.17
2022-08-02T16:12:32.520Z,4.17
2022-08-02T16:14:29.046Z,4.17
2022-08-02T16:16:30.691Z,4.17
2022-08-02T16:18:31.867Z,4.17
2022-08-02T16:20:33.419Z,4.17
2022-08-02T16:22:34.259Z,4.17
2022-08-02T16:24:35.417Z,4.17
2022-08-02T16:26:36.600Z,4.17
2022-08-02T16:28:37.679Z,4.17
2022-08-02T16:32:40.150Z,4.17
2022-08-02T16:35:04.289Z,4.17
2022-08-02T16:38:43.448Z,4.17
2022-08-02T16:40:44.270Z,4.17
2022-08-02T16:42:48.914Z,4.17
2022-08-02T16:44:53.394Z,4.17
2022-08-02T16:48:50.995Z,4.17
2022-08-02T16:50:50.799Z,4.17
2022-08-02T16:54:53.242Z,4.17
2022-08-02T16:58:58.809Z,4.16
2022-08-02T17:00:57.460Z,4.17
2022-08-02T17:05:00.127Z,4.16
2022-08-02T17:07:00.979Z,4.16
2022-08-02T17:09:02.524Z,4.16
2022-08-02T17:11:04.063Z,4.16
2022-08-02T17:15:53.137Z,4.16
2022-08-02T17:17:08.126Z,4.16
2022-08-02T17:19:09.233Z,4.16
2022-08-02T17:21:53.865Z,4.16
2022-08-02T17:24:04.814Z,4.16
2022-08-02T17:25:56.309Z,4.16
2022-08-02T17:27:57.083Z,4.16
2022-08-02T17:29:58.128Z,4.16
2022-08-02T17:32:02.797Z,4.16
2022-08-02T17:34:00.263Z,4.16
2022-08-02T17:36:01.138Z,4.16
2022-08-02T17:38:02.028Z,4.16
2022-08-02T17:42:04.723Z,4.16
2022-08-02T17:44:06.029Z,4.16
2022-08-02T17:46:07.091Z,4.16
2022-08-02T17:48:08.339Z,4.16
2022-08-02T17:52:25.362Z,4.16
2022-08-02T17:54:11.996Z,4.15
2022-08-02T17:56:13.600Z,4.16
2022-08-02T17:58:14.890Z,4.16
2022-08-02T18:00:16.230Z,4.16
2022-08-02T18:02:18.472Z,4.16
2022-08-02T18:04:19.514Z,4.15
2022-08-02T18:08:22.694Z,4.15
2022-08-02T18:10:23.183Z,4.15
2022-08-02T18:12:24.478Z,4.16
2022-08-02T18:14:26.490Z,4.16
2022-08-02T18:16:27.154Z,4.16
2022-08-02T18:18:29.483Z,4.15
2022-08-02T18:20:29.211Z,4.16
2022-08-02T18:22:30.869Z,4.15
2022-08-02T18:24:31.798Z,4.15
2022-08-02T18:26:32.697Z,4.15
2022-08-02T18:28:34.447Z,4.16
2022-08-02T18:30:35.327Z,4.15
2022-08-02T18:32:37.729Z,4.15
2022-08-02T18:34:39.205Z,4.15
2022-08-02T18:40:42.607Z,4.15
2022-08-02T18:42:44.302Z,4.15
2022-08-02T18:44:45.899Z,4.15
2022-08-02T18:46:46.894Z,4.15
2022-08-02T18:50:49.198Z,4.15
2022-08-02T18:52:50.375Z,4.15
2022-08-02T18:56:53.276Z,4.15
2022-08-02T18:58:55.411Z,4.15
2022-08-02T19:00:56.208Z,4.15
2022-08-02T19:02:57.090Z,4.15
2022-08-02T19:07:07.261Z,4.14
2022-08-02T19:09:06.396Z,4.15
2022-08-02T19:11:02.934Z,4.14
2022-08-02T19:13:04.191Z,4.14
2022-08-02T19:15:05.099Z,4.15
2022-08-02T19:17:11.677Z,4.14
2022-08-02T19:19:08.575Z,4.14
2022-08-02T19:23:10.711Z,4.14
2022-08-02T19:25:14.230Z,4.14
2022-08-02T19:27:13.699Z,4.14
2022-08-02T19:29:14.235Z,4.14
2022-08-02T19:33:20.391Z,4.14
2022-08-02T19:35:28.285Z,4.14
2022-08-02T19:37:20.080Z,4.14
2022-08-02T19:39:21.504Z,4.14
2022-08-02T19:41:22.818Z,4.14
2022-08-02T19:44:22.767Z,4.14
2022-08-02T19:45:30.176Z,4.14
2022-08-02T19:49:39.181Z,4.14
2022-08-02T19:51:50.204Z,4.14
2022-08-02T19:55:59.276Z,4.14
2022-08-02T19:57:35.206Z,4.14
2022-08-02T19:59:36.155Z,4.14
2022-08-02T20:01:39.522Z,4.14
2022-08-02T20:05:40.061Z,4.14
2022-08-02T20:07:50.174Z,4.14
2022-08-02T20:09:46.764Z,4.14
2022-08-02T20:11:44.308Z,4.13
2022-08-02T20:13:47.440Z,4.14
2022-08-02T20:15:51.942Z,4.13
2022-08-02T20:17:49.126Z,4.14
2022-08-02T20:21:54.301Z,4.14
2022-08-02T20:23:52.016Z,4.13
2022-08-02T20:27:54.557Z,4.14
2022-08-02T20:29:56.088Z,4.13
2022-08-02T20:31:57.195Z,4.13
2022-08-02T20:33:58.897Z,4.13
2022-08-02T20:38:04.714Z,4.13
2022-08-02T20:40:03.210Z,4.13
2022-08-02T20:42:07.978Z,4.13
2022-08-02T20:44:05.920Z,4.13
2022-08-02T20:46:07.789Z,4.13
2022-08-02T20:48:08.678Z,4.13
2022-08-02T20:50:10.252Z,4.13
2022-08-02T20:52:23.465Z,4.13
2022-08-02T20:54:12.845Z,4.13
2022-08-02T20:56:14.167Z,4.13
2022-08-02T20:58:15.551Z,4.13
2022-08-02T21:00:16.737Z,4.13
2022-08-02T21:04:19.818Z,4.13
2022-08-02T21:06:21.098Z,4.13
2022-08-02T21:08:22.469Z,4.13
2022-08-02T21:10:23.968Z,4.12
2022-08-02T21:12:29.668Z,4.13
2022-08-02T21:14:26.083Z,4.12
2022-08-02T21:16:27.116Z,4.13
2022-08-02T21:20:29.275Z,4.13
2022-08-02T21:22:30.962Z,4.13
2022-08-02T21:24:32.689Z,4.12
2022-08-02T21:26:34.203Z,4.12
2022-08-02T21:28:44.001Z,4.12
2022-08-02T21:30:37.414Z,4.12
2022-08-02T21:32:38.376Z,4.12
2022-08-02T21:36:41.165Z,4.12
2022-08-02T21:38:42.048Z,4.12
2022-08-02T21:40:42.997Z,4.12
2022-08-02T21:42:44.802Z,4.12
2022-08-02T21:46:49.030Z,4.12
2022-08-02T21:48:48.860Z,4.12
2022-08-02T21:52:52.483Z,4.12
2022-08-02T21:54:53.036Z,4.12
2022-08-02T21:56:54.794Z,4.12
2022-08-02T21:58:56.355Z,4.12
2022-08-02T22:02:59.794Z,4.12
2022-08-02T22:05:01.911Z,4.12
2022-08-02T22:07:02.677Z,4.12
2022-08-02T22:09:04.283Z,4.12
2022-08-02T22:11:09.454Z,4.12
2022-08-02T22:13:06.658Z,4.12
2022-08-02T22:15:10.308Z,4.12
2022-08-02T22:19:10.796Z,4.12
2022-08-02T22:21:14.090Z,4.12
2022-08-02T22:23:22.767Z,4.12
2022-08-02T22:25:21.841Z,4.12
2022-08-02T22:29:17.907Z,4.11
2022-08-02T22:31:19.484Z,4.12
2022-08-02T22:35:22.104Z,4.11
2022-08-02T22:38:15.768Z,4.11
2022-08-02T22:39:25.201Z,4.12
2022-08-02T22:42:00.227Z,4.12
2022-08-02T22:45:29.148Z,4.11
2022-08-02T22:47:30.560Z,4.11
2022-08-02T22:51:33.640Z,4.11
2022-08-02T22:53:35.802Z,4.11
2022-08-02T22:55:35.993Z,4.11
2022-08-02T22:57:50.464Z,4.11
2022-08-02T22:58:51.815Z,4.15
2022-08-02T23:01:39.798Z,4.11
2022-08-02T23:03:41.448Z,4.11
2022-08-02T23:05:42.874Z,4.11
2022-08-02T23:07:44.012Z,4.11
2022-08-02T23:09:45.001Z,4.11
2022-08-02T23:11:46.224Z,4.11
2022-08-02T23:13:47.784Z,4.11
2022-08-02T23:15:49.402Z,4.11
2022-08-02T23:17:52.982Z,4.11
2022-08-02T23:19:52.578Z,4.11
2022-08-02T23:22:01.269Z,4.11
2022-08-02T23:23:55.105Z,4.11
2022-08-02T23:27:57.241Z,4.11
2022-08-02T23:29:58.593Z,4.1
2022-08-02T23:32:00.155Z,4.11
2022-08-02T23:34:04.570Z,4.1
2022-08-02T23:36:02.359Z,4.11
2022-08-02T23:38:04.035Z,4.1
2022-08-02T23:40:05.601Z,4.11
2022-08-02T23:44:13.850Z,4.1
2022-08-02T23:46:09.620Z,4.1
2022-08-02T23:48:10.564Z,4.1
2022-08-02T23:50:11.572Z,4.1
2022-08-02T23:52:13.373Z,4.1
2022-08-02T23:54:14.585Z,4.1
2022-08-02T23:56:16.275Z,4.1
